Mustafa Dayi — TCZF2 — position and weather

sailwx.info

Track history (hours):
 
Tides and Currents Weather Stations Pressure Air Temp Water Temp Dewpoint Dewpoint Depression Visibility Wind Speed Wind Dir Waves Ship Positions

Mustafa Dayi

Last reported at 2016-Dec-02 13:18 UTC. Time now 2016-Dec-05 04:29 UTC.
Position N 34°31' E 032°28'.

Length 183 m; draft 7.9 m.

Type: Ship (hazmat cat A). MMSI: 271042433.

Date/timePositionNaut miles runAvg speedWind from/ knotsBaromVisibWave heightAir tempDewpointWater temp
2016-Dec-02 13:18N 34°31' E 032°28'811.2
2016-Dec-02 12:34N 34°30' E 032°38'1110.8
2016-Dec-02 11:34N 34°27' E 032°51'1010.5
2016-Dec-02 10:34N 34°26' E 033°03'1010.2
2016-Dec-02 09:33N 34°25' E 033°16'1111.3
2016-Dec-02 08:33N 34°31' E 033°28'  
2016-Nov-28 22:25N 31°51' E 034°38'13 9.7
2016-Nov-28 21:03N 32°04' E 034°34'715.1
2016-Nov-28 20:33N 32°11' E 034°37'1414.3
2016-Nov-28 19:33N 32°25' E 034°41'1414.4
2016-Nov-28 18:33N 32°39' E 034°46'1513.9
2016-Nov-28 17:30N 32°52' E 034°53'7 7.5
2016-Nov-28 16:33N 32°49' E 035°01'0 0.0
2016-Nov-28 15:33N 32°49' E 035°01'0 0.0
2016-Nov-28 14:33N 32°49' E 035°01'0 0.0
2016-Nov-28 13:32N 32°49' E 035°01'0 0.0
2016-Nov-28 12:32N 32°49' E 035°01'0 0.0
2016-Nov-28 11:32N 32°49' E 035°01'0 0.0
2016-Nov-28 10:31N 32°49' E 035°01'0 0.0
2016-Nov-28 09:31N 32°49' E 035°01'0 0.0
2016-Nov-28 08:33N 32°49' E 035°01'0 0.0
2016-Nov-28 07:33N 32°49' E 035°01'0 0.0
2016-Nov-28 06:33N 32°49' E 035°01'0 0.0
2016-Nov-28 05:33N 32°49' E 035°01'0 0.0
2016-Nov-28 04:33N 32°49' E 035°01'0 0.0
2016-Nov-28 03:34N 32°49' E 035°01'0 0.0
2016-Nov-28 02:34N 32°49' E 035°01'0 0.0
2016-Nov-28 01:34N 32°49' E 035°01'0 0.0
2016-Nov-28 00:34N 32°49' E 035°01'1 1.4
2016-Nov-27 23:33N 32°50' E 035°01'3 2.8
2016-Nov-27 22:33N 32°53' E 034°59'0 0.0
2016-Nov-27 21:32N 32°53' E 034°59'0 0.0
2016-Nov-27 20:32N 32°53' E 034°59'0 0.0
2016-Nov-27 19:32N 32°53' E 034°59'0 0.0
2016-Nov-27 18:31N 32°53' E 034°59'0 0.0
2016-Nov-27 17:31N 32°53' E 034°59'0 0.0
2016-Nov-27 16:33N 32°53' E 034°59'0 0.0
2016-Nov-27 15:33N 32°52' E 034°59'0 0.0
2016-Nov-27 14:32N 32°52' E 034°59'0 0.1
2016-Nov-27 13:32N 32°53' E 034°59'0 0.0
2016-Nov-27 12:31N 32°53' E 034°59'0 0.0
2016-Nov-27 11:31N 32°53' E 034°59'0 0.2
2016-Nov-27 10:33N 32°53' E 034°59'9 9.3
2016-Nov-27 09:33N 32°54' E 034°48'  
Track history (hours):
 
Tides and Currents Weather Stations Pressure Air Temp Water Temp Dewpoint Dewpoint Depression Visibility Wind Speed Wind Dir Waves Ship Positions

Mustafa Dayi

Last reported at 2016-Dec-02 13:18 UTC. Time now 2016-Dec-05 04:29 UTC.
Position N 34°31' E 032°28'.

Length 183 m; draft 7.9 m.

Type: Ship (hazmat cat A). MMSI: 271042433.

Date/timePositionNaut miles runAvg speedWind from/ knotsBaromVisibWave heightAir tempDewpointWater temp
2016-Dec-02 13:18N 34°31' E 032°28'811.2
2016-Dec-02 12:34N 34°30' E 032°38'1110.8
2016-Dec-02 11:34N 34°27' E 032°51'1010.5
2016-Dec-02 10:34N 34°26' E 033°03'1010.2
2016-Dec-02 09:33N 34°25' E 033°16'1111.3
2016-Dec-02 08:33N 34°31' E 033°28'  
2016-Nov-28 22:25N 31°51' E 034°38'13 9.7
2016-Nov-28 21:03N 32°04' E 034°34'715.1
2016-Nov-28 20:33N 32°11' E 034°37'1414.3
2016-Nov-28 19:33N 32°25' E 034°41'1414.4
2016-Nov-28 18:33N 32°39' E 034°46'1513.9
2016-Nov-28 17:30N 32°52' E 034°53'7 7.5
2016-Nov-28 16:33N 32°49' E 035°01'0 0.0
2016-Nov-28 15:33N 32°49' E 035°01'0 0.0
2016-Nov-28 14:33N 32°49' E 035°01'0 0.0
2016-Nov-28 13:32N 32°49' E 035°01'0 0.0
2016-Nov-28 12:32N 32°49' E 035°01'0 0.0
2016-Nov-28 11:32N 32°49' E 035°01'0 0.0
2016-Nov-28 10:31N 32°49' E 035°01'0 0.0
2016-Nov-28 09:31N 32°49' E 035°01'0 0.0
2016-Nov-28 08:33N 32°49' E 035°01'0 0.0
2016-Nov-28 07:33N 32°49' E 035°01'0 0.0
2016-Nov-28 06:33N 32°49' E 035°01'0 0.0
2016-Nov-28 05:33N 32°49' E 035°01'0 0.0
2016-Nov-28 04:33N 32°49' E 035°01'0 0.0
2016-Nov-28 03:34N 32°49' E 035°01'0 0.0
2016-Nov-28 02:34N 32°49' E 035°01'0 0.0
2016-Nov-28 01:34N 32°49' E 035°01'0 0.0
2016-Nov-28 00:34N 32°49' E 035°01'1 1.4
2016-Nov-27 23:33N 32°50' E 035°01'3 2.8
2016-Nov-27 22:33N 32°53' E 034°59'0 0.0
2016-Nov-27 21:32N 32°53' E 034°59'0 0.0
2016-Nov-27 20:32N 32°53' E 034°59'0 0.0
2016-Nov-27 19:32N 32°53' E 034°59'0 0.0
2016-Nov-27 18:31N 32°53' E 034°59'0 0.0
2016-Nov-27 17:31N 32°53' E 034°59'0 0.0
2016-Nov-27 16:33N 32°53' E 034°59'0 0.0
2016-Nov-27 15:33N 32°52' E 034°59'0 0.0
2016-Nov-27 14:32N 32°52' E 034°59'0 0.1
2016-Nov-27 13:32N 32°53' E 034°59'0 0.0
2016-Nov-27 12:31N 32°53' E 034°59'0 0.0
2016-Nov-27 11:31N 32°53' E 034°59'0 0.2
2016-Nov-27 10:33N 32°53' E 034°59'9 9.3
2016-Nov-27 09:33N 32°54' E 034°48'  

Dump ship's entire track history